Terminal Aerodrome Forecast
Issued by NWS Billings, MT

Home | Current Version | Previous Version | Text Only | Print | Product List | Glossary On
Versions: 1 2 3 4 5 6 7 8 9 10 11 12 13 14 15 16 17
000
FTUS45 KBYZ 010520
TAFBIL
TAF
KBIL 010520Z 0106/0206 VRB06KT P6SM FEW120 BKN250
     FM011300 24010KT P6SM FEW120 SCT250
     FM011700 15008KT P6SM SCT100 BKN250=

USA.gov is the U.S. government's official web portal to all federal, state and local government web resources and services.